createdAt,value
2019-05-23T00:01:20.670Z,95720.00
2019-05-23T00:04:02.530Z,95717.00
2019-05-23T00:06:33.710Z,95723.00
2019-05-23T00:09:06.637Z,95723.00
2019-05-23T00:11:40.719Z,95715.00
2019-05-23T00:14:30.970Z,95722.00
2019-05-23T00:17:02.359Z,95715.00
2019-05-23T00:19:33.848Z,95709.00
2019-05-23T00:22:07.553Z,95722.00
2019-05-23T00:24:39.741Z,95716.00
2019-05-23T00:27:10.465Z,95718.00
2019-05-23T00:29:43.316Z,95716.00
2019-05-23T00:32:26.541Z,95716.00
2019-05-23T00:34:59.292Z,95715.00
2019-05-23T00:37:33.031Z,95709.00
2019-05-23T00:40:05.965Z,95704.00
2019-05-23T00:42:36.480Z,95699.00
2019-05-23T00:45:10.149Z,95705.00
2019-05-23T00:47:41.599Z,95698.00
2019-05-23T00:50:14.686Z,95696.00
2019-05-23T00:52:45.439Z,95696.00
2019-05-23T00:55:20.366Z,95699.00
2019-05-23T00:57:51.679Z,95696.00
2019-05-23T01:00:25.065Z,95707.00
2019-05-23T01:02:56.942Z,95697.00
2019-05-23T01:05:29.568Z,95697.00
2019-05-23T01:08:01.643Z,95701.00
2019-05-23T01:10:33.452Z,95701.00
2019-05-23T01:13:04.125Z,95705.00
2019-05-23T01:15:35.039Z,95700.00
2019-05-23T01:18:06.595Z,95685.00
2019-05-23T01:20:49.687Z,95706.00
2019-05-23T01:23:20.248Z,95705.00
2019-05-23T01:25:52.864Z,95704.00
2019-05-23T01:28:24.711Z,95702.00
2019-05-23T01:30:59.494Z,95704.00
2019-05-23T01:33:31.157Z,95706.00
2019-05-23T01:36:02.915Z,95710.00
2019-05-23T01:38:34.823Z,95717.00
2019-05-23T01:41:06.848Z,95706.00
2019-05-23T01:43:38.020Z,95701.00
2019-05-23T01:46:09.896Z,95695.00
2019-05-23T01:48:43.044Z,95691.00
2019-05-23T01:51:15.401Z,95697.00
2019-05-23T01:53:47.176Z,95696.00
2019-05-23T01:56:18.307Z,95700.00
2019-05-23T01:58:50.933Z,95703.00
2019-05-23T02:01:24.118Z,95693.00
2019-05-23T02:03:54.563Z,95689.00
2019-05-23T02:06:25.225Z,95698.00
2019-05-23T02:08:55.898Z,95698.00
2019-05-23T02:11:27.526Z,95699.00
2019-05-23T02:13:58.476Z,95699.00
2019-05-23T02:16:29.473Z,95704.00
2019-05-23T02:19:00.769Z,95704.00
2019-05-23T02:21:31.701Z,95705.00
2019-05-23T02:24:02.270Z,95696.00
2019-05-23T02:26:35.361Z,95698.00
2019-05-23T02:29:07.917Z,95705.00
2019-05-23T02:31:38.620Z,95696.00
2019-05-23T02:34:13.938Z,95701.00
2019-05-23T02:36:46.308Z,95699.00
2019-05-23T02:39:49.871Z,95702.00
2019-05-23T02:42:32.376Z,95704.00
2019-05-23T02:45:04.534Z,95703.00
2019-05-23T02:47:41.952Z,95699.00
2019-05-23T02:50:26.573Z,95698.00
2019-05-23T02:52:58.364Z,95696.00
2019-05-23T02:55:39.047Z,95700.00
2019-05-23T02:58:27.486Z,95701.00
2019-05-23T03:01:37.281Z,95693.00
2019-05-23T03:04:30.218Z,95702.00
2019-05-23T03:07:04.005Z,95694.00
2019-05-23T03:09:36.958Z,95692.00
2019-05-23T03:12:13.218Z,95684.00
2019-05-23T03:14:45.724Z,95692.00
2019-05-23T03:17:23.594Z,95683.00
2019-05-23T03:19:58.068Z,95679.00
2019-05-23T03:22:40.714Z,95690.00
2019-05-23T03:26:03.911Z,95693.00
2019-05-23T03:28:42.583Z,95693.00
2019-05-23T03:31:31.400Z,95696.00
2019-05-23T03:34:00.363Z,95687.00
2019-05-23T03:36:31.848Z,95690.00
2019-05-23T03:39:04.095Z,95690.00
2019-05-23T03:41:34.839Z,95680.00
2019-05-23T03:44:07.442Z,95680.00
2019-05-23T03:46:41.831Z,95677.00
2019-05-23T03:49:16.954Z,95689.00
2019-05-23T03:51:48.087Z,95689.00
2019-05-23T03:54:19.199Z,95685.00
2019-05-23T03:56:50.682Z,95683.00
2019-05-23T03:59:23.440Z,95691.00
2019-05-23T04:01:55.860Z,95689.00
2019-05-23T04:04:27.624Z,95692.00
2019-05-23T04:06:58.892Z,95693.00
2019-05-23T04:09:29.729Z,95685.00
2019-05-23T04:12:00.696Z,95688.00
2019-05-23T04:14:31.393Z,95692.00
2019-05-23T04:17:06.437Z,95690.00
2019-05-23T04:19:36.991Z,95688.00
2019-05-23T04:22:08.285Z,95690.00
2019-05-23T04:24:38.855Z,95691.00
2019-05-23T04:27:09.519Z,95696.00
2019-05-23T04:29:40.281Z,95702.00
2019-05-23T04:32:11.337Z,95706.00
2019-05-23T04:34:42.105Z,95703.00
2019-05-23T04:37:12.641Z,95696.00
2019-05-23T04:39:43.298Z,95707.00
2019-05-23T04:42:13.802Z,95719.00
2019-05-23T04:44:44.878Z,95721.00
2019-05-23T04:47:15.489Z,95703.00
2019-05-23T04:49:46.378Z,95715.00
2019-05-23T04:52:17.454Z,95714.00
2019-05-23T04:54:48.509Z,95721.00
2019-05-23T04:57:20.022Z,95716.00
2019-05-23T04:59:50.924Z,95720.00
2019-05-23T05:02:26.542Z,95705.00
2019-05-23T05:04:54.520Z,95714.00
2019-05-23T05:07:25.196Z,95703.00
2019-05-23T05:09:56.336Z,95711.00
2019-05-23T05:12:27.130Z,95715.00
2019-05-23T05:14:57.768Z,95717.00
2019-05-23T05:17:29.260Z,95718.00
2019-05-23T05:20:02.453Z,95728.00
2019-05-23T05:22:32.994Z,95722.00
2019-05-23T05:25:04.728Z,95717.00
2019-05-23T05:27:35.250Z,95717.00
2019-05-23T05:30:06.938Z,95721.00
2019-05-23T05:32:44.570Z,95723.00
2019-05-23T05:35:10.518Z,95729.00
2019-05-23T05:37:41.087Z,95726.00
2019-05-23T05:40:14.488Z,95726.00
2019-05-23T05:42:46.076Z,95726.00
2019-05-23T05:45:20.196Z,95728.00
2019-05-23T05:47:50.708Z,95724.00
2019-05-23T05:50:21.666Z,95724.00
2019-05-23T05:52:52.583Z,95718.00
2019-05-23T05:55:23.155Z,95724.00
2019-05-23T05:57:53.636Z,95725.00
2019-05-23T06:00:41.915Z,95723.00
2019-05-23T06:03:12.465Z,95728.00
2019-05-23T06:06:04.769Z,95728.00
2019-05-23T06:08:37.753Z,95727.00
2019-05-23T06:11:08.848Z,95735.00
2019-05-23T06:13:42.120Z,95729.00
2019-05-23T06:16:12.698Z,95729.00
2019-05-23T06:18:43.198Z,95725.00
2019-05-23T06:21:15.479Z,95720.00
2019-05-23T06:23:46.668Z,95728.00
2019-05-23T06:26:17.434Z,95726.00
2019-05-23T06:28:47.999Z,95733.00
2019-05-23T06:31:21.586Z,95729.00
2019-05-23T06:33:53.622Z,95735.00
2019-05-23T06:36:27.307Z,95728.00
2019-05-23T06:38:57.943Z,95734.00
2019-05-23T06:41:29.015Z,95728.00
2019-05-23T06:43:59.739Z,95731.00
2019-05-23T06:46:30.414Z,95728.00
2019-05-23T06:49:00.947Z,95738.00
2019-05-23T06:51:31.821Z,95736.00
2019-05-23T06:54:02.444Z,95729.00
2019-05-23T06:56:32.976Z,95729.00
2019-05-23T06:59:04.575Z,95733.00
2019-05-23T07:01:35.226Z,95726.00
2019-05-23T07:04:07.728Z,95735.00
2019-05-23T07:06:38.396Z,95730.00
2019-05-23T07:09:15.887Z,95734.00
2019-05-23T07:11:46.588Z,95735.00
2019-05-23T07:14:17.278Z,95742.00
2019-05-23T07:16:50.252Z,95740.00
2019-05-23T07:19:21.452Z,95735.00
2019-05-23T07:21:51.956Z,95736.00
2019-05-23T07:24:23.044Z,95739.00
2019-05-23T07:26:53.620Z,95745.00
2019-05-23T07:29:24.320Z,95731.00
2019-05-23T07:31:54.978Z,95733.00
2019-05-23T07:34:26.650Z,95728.00
2019-05-23T07:36:58.669Z,95732.00
2019-05-23T07:39:29.195Z,95724.00
2019-05-23T07:41:59.701Z,95729.00
2019-05-23T07:44:45.951Z,95725.00
2019-05-23T07:47:06.325Z,95722.00
2019-05-23T07:49:36.909Z,95711.00
2019-05-23T07:52:07.956Z,95715.00
2019-05-23T07:54:47.886Z,95719.00
2019-05-23T07:57:18.820Z,95718.00
2019-05-23T07:59:50.081Z,95716.00
2019-05-23T08:02:28.511Z,95710.00
2019-05-23T08:04:59.368Z,95715.00
2019-05-23T08:07:32.617Z,95705.00
2019-05-23T08:10:03.041Z,95704.00
2019-05-23T08:12:33.620Z,95703.00
2019-05-23T08:15:05.424Z,95701.00
2019-05-23T08:17:38.071Z,95703.00
2019-05-23T08:20:10.956Z,95707.00
2019-05-23T08:22:41.533Z,95694.00
2019-05-23T08:25:12.411Z,95698.00
2019-05-23T08:27:43.692Z,95695.00
2019-05-23T08:30:15.520Z,95694.00
2019-05-23T08:32:46.051Z,95695.00
2019-05-23T08:35:18.150Z,95691.00
2019-05-23T08:37:49.850Z,95696.00
2019-05-23T08:40:22.485Z,95691.00
2019-05-23T08:42:53.635Z,95697.00
2019-05-23T08:45:25.222Z,95690.00
2019-05-23T08:47:55.878Z,95692.00
2019-05-23T08:50:26.382Z,95696.00
2019-05-23T08:52:59.502Z,95703.00
2019-05-23T08:55:31.673Z,95687.00
2019-05-23T08:58:02.756Z,95688.00
2019-05-23T09:00:35.529Z,95693.00
2019-05-23T09:03:07.540Z,95690.00
2019-05-23T09:05:41.015Z,95693.00
2019-05-23T09:08:16.373Z,95694.00
2019-05-23T09:10:44.729Z,95695.00
2019-05-23T09:13:16.152Z,95690.00
2019-05-23T09:15:46.824Z,95681.00
2019-05-23T09:18:17.324Z,95689.00
2019-05-23T09:20:49.633Z,95688.00
2019-05-23T09:23:20.312Z,95693.00
2019-05-23T09:25:52.074Z,95687.00
2019-05-23T09:28:23.496Z,95683.00
2019-05-23T09:31:01.684Z,95688.00
2019-05-23T09:33:32.506Z,95689.00
2019-05-23T09:36:03.583Z,95690.00
2019-05-23T09:38:34.149Z,95690.00
2019-05-23T09:41:04.701Z,95688.00
2019-05-23T09:43:35.190Z,95696.00
2019-05-23T09:46:05.850Z,95685.00
2019-05-23T09:48:36.825Z,95682.00
2019-05-23T09:51:09.062Z,95676.00
2019-05-23T09:53:46.939Z,95670.00
2019-05-23T09:56:16.625Z,95679.00
2019-05-23T09:58:47.151Z,95676.00
2019-05-23T10:01:19.298Z,95668.00
2019-05-23T10:03:51.675Z,95677.00
2019-05-23T10:06:22.257Z,95667.00
2019-05-23T10:08:52.883Z,95662.00
2019-05-23T10:11:23.373Z,95667.00
2019-05-23T10:13:54.036Z,95659.00
2019-05-23T10:16:24.615Z,95665.00
2019-05-23T10:18:59.058Z,95666.00
2019-05-23T10:21:30.110Z,95667.00
2019-05-23T10:24:01.863Z,95655.00
2019-05-23T10:26:32.468Z,95655.00
2019-05-23T10:29:03.179Z,95658.00
2019-05-23T10:31:33.777Z,95656.00
2019-05-23T10:34:04.481Z,95650.00
2019-05-23T10:36:35.076Z,95651.00
2019-05-23T10:39:08.723Z,95647.00
2019-05-23T10:41:39.457Z,95649.00
2019-05-23T10:44:13.028Z,95645.00
2019-05-23T10:46:43.751Z,95629.00
2019-05-23T10:49:16.559Z,95633.00
2019-05-23T10:51:47.033Z,95640.00
2019-05-23T10:54:18.530Z,95639.00
2019-05-23T10:56:49.144Z,95643.00
2019-05-23T10:59:24.204Z,95641.00
2019-05-23T11:01:55.532Z,95637.00
2019-05-23T11:04:26.749Z,95629.00
2019-05-23T11:06:58.979Z,95629.00
2019-05-23T11:09:38.033Z,95625.00
2019-05-23T11:12:05.947Z,95628.00
2019-05-23T11:14:36.470Z,95633.00
2019-05-23T11:17:08.277Z,95626.00
2019-05-23T11:19:38.944Z,95626.00
2019-05-23T11:22:09.690Z,95624.00
2019-05-23T11:24:40.581Z,95620.00
2019-05-23T11:27:11.373Z,95621.00
2019-05-23T11:29:42.078Z,95619.00
2019-05-23T11:32:13.146Z,95621.00
2019-05-23T11:34:43.814Z,95622.00
2019-05-23T11:37:14.385Z,95616.00
2019-05-23T11:39:49.708Z,95611.00
2019-05-23T11:42:17.065Z,95616.00
2019-05-23T11:44:47.906Z,95610.00
2019-05-23T11:47:18.592Z,95615.00
2019-05-23T11:49:49.138Z,95608.00
2019-05-23T11:52:19.893Z,95600.00
2019-05-23T11:54:50.891Z,95603.00
2019-05-23T11:57:21.895Z,95607.00
2019-05-23T11:59:55.018Z,95600.00
2019-05-23T12:02:31.214Z,95594.00
2019-05-23T12:05:02.992Z,95595.00
2019-05-23T12:07:34.737Z,95589.00
2019-05-23T12:10:06.242Z,95587.00
2019-05-23T12:12:37.072Z,95590.00
2019-05-23T12:15:12.280Z,95585.00
2019-05-23T12:17:44.040Z,95586.00
2019-05-23T12:20:15.931Z,95587.00
2019-05-23T12:22:47.166Z,95590.00
2019-05-23T12:25:22.480Z,95580.00
2019-05-23T12:27:50.161Z,95584.00
2019-05-23T12:30:22.173Z,95593.00
2019-05-23T12:32:52.703Z,95585.00
2019-05-23T12:35:23.175Z,95584.00
2019-05-23T12:37:53.652Z,95580.00
2019-05-23T12:40:24.105Z,95572.00
2019-05-23T12:42:54.680Z,95572.00
2019-05-23T12:45:25.250Z,95575.00
2019-05-23T12:48:00.938Z,95571.00
2019-05-23T12:50:36.981Z,95570.00
2019-05-23T12:53:09.374Z,95570.00
2019-05-23T12:55:40.441Z,95567.00
2019-05-23T12:58:11.072Z,95564.00
2019-05-23T13:00:49.153Z,95559.00
2019-05-23T13:03:19.906Z,95557.00
2019-05-23T13:05:51.026Z,95556.00
2019-05-23T13:08:21.562Z,95562.00
2019-05-23T13:10:53.248Z,95563.00
2019-05-23T13:13:23.966Z,95561.00
2019-05-23T13:15:54.453Z,95562.00
2019-05-23T13:18:25.039Z,95561.00
2019-05-23T13:20:59.200Z,95560.00
2019-05-23T13:23:28.866Z,95553.00
2019-05-23T13:25:59.827Z,95559.00
2019-05-23T13:28:30.305Z,95559.00
2019-05-23T13:31:01.048Z,95564.00
2019-05-23T13:33:32.193Z,95563.00
2019-05-23T13:36:02.957Z,95561.00
2019-05-23T13:38:33.895Z,95563.00
2019-05-23T13:41:04.935Z,95565.00
2019-05-23T13:43:35.777Z,95560.00
2019-05-23T13:46:06.746Z,95556.00
2019-05-23T13:48:37.324Z,95547.00
2019-05-23T13:51:08.082Z,95547.00
2019-05-23T13:53:38.919Z,95547.00
2019-05-23T13:56:11.399Z,95549.00
2019-05-23T13:58:45.440Z,95541.00
2019-05-23T14:01:16.561Z,95536.00
2019-05-23T14:03:47.278Z,95547.00
2019-05-23T14:06:17.758Z,95540.00
2019-05-23T14:08:49.554Z,95534.00
2019-05-23T14:11:20.363Z,95535.00
2019-05-23T14:13:59.561Z,95539.00
2019-05-23T14:16:23.550Z,95538.00
2019-05-23T14:18:54.507Z,95543.00
2019-05-23T14:21:25.313Z,95536.00
2019-05-23T14:23:56.289Z,95541.00
2019-05-23T14:26:30.726Z,95536.00
2019-05-23T14:29:04.682Z,95536.00
2019-05-23T14:31:42.331Z,95534.00
2019-05-23T14:34:15.340Z,95533.00
2019-05-23T14:37:13.101Z,95530.00
2019-05-23T14:39:49.439Z,95530.00
2019-05-23T14:42:37.886Z,95528.00
2019-05-23T14:45:29.652Z,95527.00
2019-05-23T14:48:12.101Z,95530.00
2019-05-23T14:50:53.729Z,95529.00
2019-05-23T14:53:24.892Z,95528.00
2019-05-23T14:55:55.378Z,95519.00
2019-05-23T14:58:26.176Z,95522.00
2019-05-23T15:00:57.645Z,95526.00
2019-05-23T15:03:29.116Z,95519.00
2019-05-23T15:05:59.694Z,95515.00
2019-05-23T15:08:49.147Z,95520.00
2019-05-23T15:11:02.956Z,95514.00
2019-05-23T15:13:33.544Z,95520.00
2019-05-23T15:16:05.209Z,95521.00
2019-05-23T15:18:35.693Z,95514.00
2019-05-23T15:21:06.197Z,95514.00
2019-05-23T15:23:36.744Z,95510.00
2019-05-23T15:26:21.483Z,95509.00
2019-05-23T15:28:39.431Z,95521.00
2019-05-23T15:31:10.640Z,95515.00
2019-05-23T15:33:41.315Z,95518.00
2019-05-23T15:36:12.696Z,95514.00
2019-05-23T15:38:43.233Z,95499.00
2019-05-23T15:41:13.865Z,95504.00
2019-05-23T15:43:44.654Z,95506.00
2019-05-23T15:46:15.321Z,95503.00
2019-05-23T15:48:46.777Z,95505.00
2019-05-23T15:51:22.249Z,95502.00
2019-05-23T15:54:10.460Z,95502.00
2019-05-23T15:56:52.418Z,95503.00
2019-05-23T15:59:28.100Z,95505.00
2019-05-23T16:02:26.951Z,95505.00
2019-05-23T16:05:00.521Z,95501.00
2019-05-23T16:07:32.347Z,95503.00
2019-05-23T16:10:03.435Z,95491.00
2019-05-23T16:12:34.100Z,95492.00
2019-05-23T16:15:06.183Z,95487.00
2019-05-23T16:17:36.671Z,95493.00
2019-05-23T16:20:07.797Z,95496.00
2019-05-23T16:22:38.703Z,95487.00
2019-05-23T16:25:09.707Z,95488.00
2019-05-23T16:27:40.503Z,95484.00
2019-05-23T16:30:11.845Z,95485.00
2019-05-23T16:32:46.407Z,95475.00
2019-05-23T16:35:15.878Z,95494.00
2019-05-23T16:37:46.339Z,95492.00
2019-05-23T16:40:17.370Z,95488.00
2019-05-23T16:42:47.946Z,95485.00
2019-05-23T16:45:18.692Z,95484.00
2019-05-23T16:47:49.659Z,95488.00
2019-05-23T16:50:20.178Z,95479.00
2019-05-23T16:52:50.881Z,95481.00
2019-05-23T16:55:29.762Z,95479.00
2019-05-23T16:58:05.079Z,95485.00
2019-05-23T17:00:50.901Z,95477.00
2019-05-23T17:03:57.727Z,95475.00
2019-05-23T17:06:37.752Z,95473.00
2019-05-23T17:09:31.733Z,95472.00
2019-05-23T17:12:27.091Z,95478.00
2019-05-23T17:15:28.605Z,95478.00
2019-05-23T17:18:10.757Z,95478.00
2019-05-23T17:20:52.806Z,95478.00
2019-05-23T17:23:41.416Z,95473.00
2019-05-23T17:26:31.541Z,95477.00
2019-05-23T17:29:02.791Z,95478.00
2019-05-23T17:31:36.754Z,95480.00
2019-05-23T17:34:08.041Z,95482.00
2019-05-23T17:36:38.855Z,95475.00
2019-05-23T17:39:15.238Z,95477.00
2019-05-23T17:41:45.961Z,95482.00
2019-05-23T17:44:16.685Z,95482.00
2019-05-23T17:46:47.159Z,95490.00
2019-05-23T17:49:17.912Z,95481.00
2019-05-23T17:51:48.897Z,95478.00
2019-05-23T17:54:20.251Z,95484.00
2019-05-23T17:56:50.997Z,95478.00
2019-05-23T17:59:21.587Z,95487.00
2019-05-23T18:01:52.638Z,95485.00
2019-05-23T18:04:26.442Z,95477.00
2019-05-23T18:06:58.515Z,95477.00
2019-05-23T18:09:30.183Z,95474.00
2019-05-23T18:12:01.197Z,95479.00
2019-05-23T18:14:31.834Z,95475.00
2019-05-23T18:17:03.104Z,95479.00
2019-05-23T18:19:34.710Z,95476.00
2019-05-23T18:22:07.725Z,95484.00
2019-05-23T18:24:39.425Z,95477.00
2019-05-23T18:27:10.980Z,95480.00
2019-05-23T18:29:42.336Z,95490.00
2019-05-23T18:32:17.941Z,95482.00
2019-05-23T18:34:49.032Z,95489.00
2019-05-23T18:37:20.278Z,95491.00
2019-05-23T18:39:51.235Z,95496.00
2019-05-23T18:42:24.205Z,95496.00
2019-05-23T18:44:54.840Z,95500.00
2019-05-23T18:47:32.247Z,95492.00
2019-05-23T18:50:03.373Z,95502.00
2019-05-23T18:52:34.074Z,95502.00
2019-05-23T18:55:07.604Z,95514.00
2019-05-23T18:57:39.077Z,95497.00
2019-05-23T19:00:11.684Z,95514.00
2019-05-23T19:02:43.826Z,95508.00
2019-05-23T19:05:16.430Z,95514.00
2019-05-23T19:07:47.774Z,95516.00
2019-05-23T19:10:19.388Z,95516.00
2019-05-23T19:13:04.807Z,95516.00
2019-05-23T19:15:35.926Z,95512.00
2019-05-23T19:18:13.059Z,95517.00
2019-05-23T19:20:44.162Z,95520.00
2019-05-23T19:23:44.565Z,95522.00
2019-05-23T19:26:17.744Z,95519.00
2019-05-23T19:29:02.092Z,95521.00
2019-05-23T19:31:36.857Z,95518.00
2019-05-23T19:34:13.118Z,95525.00
2019-05-23T19:36:46.480Z,95519.00
2019-05-23T19:39:35.982Z,95525.00
2019-05-23T19:42:14.668Z,95529.00
2019-05-23T19:44:55.015Z,95527.00
2019-05-23T19:47:29.681Z,95524.00
2019-05-23T19:50:09.658Z,95520.00
2019-05-23T19:52:40.618Z,95527.00
2019-05-23T19:55:18.235Z,95516.00
2019-05-23T19:57:49.489Z,95520.00
2019-05-23T20:00:22.925Z,95522.00
2019-05-23T20:02:55.328Z,95521.00
2019-05-23T20:05:36.260Z,95519.00
2019-05-23T20:08:08.503Z,95515.00
2019-05-23T20:11:03.730Z,95515.00
2019-05-23T20:13:34.481Z,95513.00
2019-05-23T20:16:05.840Z,95511.00
2019-05-23T20:18:37.247Z,95509.00
2019-05-23T20:21:08.865Z,95518.00
2019-05-23T20:23:41.004Z,95522.00
2019-05-23T20:26:13.080Z,95521.00
2019-05-23T20:28:43.562Z,95518.00
2019-05-23T20:31:14.804Z,95525.00
2019-05-23T20:33:45.299Z,95515.00
2019-05-23T20:36:17.199Z,95511.00
2019-05-23T20:38:48.159Z,95507.00
2019-05-23T20:41:18.956Z,95509.00
2019-05-23T20:43:49.439Z,95506.00
2019-05-23T20:46:21.269Z,95500.00
2019-05-23T20:48:51.828Z,95502.00
2019-05-23T20:51:22.374Z,95495.00
2019-05-23T20:53:52.840Z,95490.00
2019-05-23T20:56:23.271Z,95493.00
2019-05-23T20:58:53.761Z,95494.00
2019-05-23T21:01:28.850Z,95495.00
2019-05-23T21:03:59.825Z,95492.00
2019-05-23T21:06:30.681Z,95492.00
2019-05-23T21:09:01.130Z,95486.00
2019-05-23T21:11:31.737Z,95499.00
2019-05-23T21:14:02.245Z,95494.00
2019-05-23T21:16:32.723Z,95497.00
2019-05-23T21:19:03.224Z,95488.00
2019-05-23T21:21:33.715Z,95489.00
2019-05-23T21:24:04.390Z,95492.00
2019-05-23T21:26:35.259Z,95488.00
2019-05-23T21:29:05.674Z,95480.00
2019-05-23T21:31:36.101Z,95480.00
2019-05-23T21:34:06.670Z,95482.00
2019-05-23T21:36:37.438Z,95490.00
2019-05-23T21:39:11.410Z,95482.00
2019-05-23T21:41:41.904Z,95481.00
2019-05-23T21:44:12.344Z,95480.00
2019-05-23T21:46:42.891Z,95484.00
2019-05-23T21:49:16.187Z,95485.00
2019-05-23T21:51:46.809Z,95493.00
2019-05-23T21:54:17.693Z,95492.00
2019-05-23T21:56:52.496Z,95488.00
2019-05-23T21:59:23.511Z,95484.00
2019-05-23T22:02:04.588Z,95481.00
2019-05-23T22:05:12.103Z,95486.00
2019-05-23T22:07:43.368Z,95481.00
2019-05-23T22:10:14.224Z,95482.00
2019-05-23T22:12:45.643Z,95481.00
2019-05-23T22:15:34.578Z,95473.00
2019-05-23T22:18:05.508Z,95467.00
2019-05-23T22:20:36.048Z,95467.00
2019-05-23T22:23:06.531Z,95465.00
2019-05-23T22:25:36.914Z,95471.00
2019-05-23T22:28:07.439Z,95466.00
2019-05-23T22:30:37.884Z,95468.00
2019-05-23T22:33:09.641Z,95464.00
2019-05-23T22:35:40.097Z,95468.00
2019-05-23T22:38:10.768Z,95463.00
2019-05-23T22:40:41.804Z,95454.00
2019-05-23T22:43:20.686Z,95463.00
2019-05-23T22:45:44.484Z,95453.00
2019-05-23T22:48:15.002Z,95462.00
2019-05-23T22:50:45.403Z,95459.00
2019-05-23T22:53:15.844Z,95453.00
2019-05-23T22:55:46.229Z,95458.00
2019-05-23T22:58:16.799Z,95462.00
2019-05-23T23:00:48.809Z,95452.00
2019-05-23T23:03:19.286Z,95447.00
2019-05-23T23:05:49.752Z,95451.00
2019-05-23T23:08:21.051Z,95446.00
2019-05-23T23:10:51.696Z,95447.00
2019-05-23T23:13:37.733Z,95445.00
2019-05-23T23:15:54.285Z,95437.00
2019-05-23T23:18:25.488Z,95437.00
2019-05-23T23:20:55.887Z,95443.00
2019-05-23T23:23:26.308Z,95433.00
2019-05-23T23:25:56.705Z,95433.00
2019-05-23T23:28:27.166Z,95427.00
2019-05-23T23:30:57.606Z,95438.00
2019-05-23T23:33:28.115Z,95430.00
2019-05-23T23:35:58.673Z,95428.00
2019-05-23T23:38:29.114Z,95434.00
2019-05-23T23:40:59.531Z,95425.00
2019-05-23T23:43:30.061Z,95421.00
2019-05-23T23:46:18.089Z,95426.00
2019-05-23T23:49:06.039Z,95427.00
2019-05-23T23:51:54.163Z,95428.00
2019-05-23T23:54:42.351Z,95426.00
2019-05-23T23:57:30.406Z,95422.00
